Rock Stream, New York
Current Conditions -  °F | °C
As of 2:53 PM on Thursday 20 Nov 2014 (Local Time) from KPEO Reporting Station
Overcast Overcast  
Wind Chill: 19°   Ceiling: 5000
Heat Index: 31°   Visibility: 10mi
Dew Point: 11°   Wind: 20mph
Humidity: 43%   Direction: 240°WSW
Pressure: 29.81"   Gusts: 23mph
Location:  42.47°N, 76.93°W
Report Text: KPEO 201953Z AUTO 24017G20KT 10SM BKN050 OVC060 M01/M12 A2981 RMK AO2 SLP106 T10061117
Loading
Personal Weather Stations






























Interactive Weather Map New forecast layout! Learn more

10-Day Weather Forecast

Advertisements
Track Severe Weather on mobile